Terminal Aerodrome Forecast
Issued by NWS Pittsburgh, PA

Current Version | Previous Version | Graphics & Text | Print | Product List | Glossary On
Versions: 1 2 3 4 5 6 7 8 9 10 11 12 13 14 15 16 17 18 19 20 21 22 23 24 25 26 27 28
000
FTUS41 KPBZ 111506 AAA
TAFPIT
TAF AMD
KPIT 111506Z 1115/1218 27007KT P6SM SCT025 BKN035
     FM111800 17004KT P6SM BKN080
     FM120800 21006KT 3SM -SN OVC025
     FM121200 26011G27KT 5SM -SHSN OVC015=

USA.gov is the U.S. government's official web portal to all federal, state and local government web resources and services.